Imperial County Airport Imperial US
ICAO: KIPL
IATA: IPL
Category: Medium
Scheduled Services: No

Elevation: -54 ft
TransAlt. 18000 ft.

Airport Communications:
ASOS:132.175
LOS ANGELES CNTR:128.6
SAN DIEGO RDO:122.5
CTAF/UNICOM:122.7

KIPL Zoom In..

If you have problems with the map follow the link
https://www.worldairports.se/pages/airport.php?
ICAO=KIPL

Runways:

(A) RW 08 length 4501 ft width 75 ft
---- / hdg 76

(B) RW 14 length 5308 ft width 100 ft
---- / hdg 139

(C) RW 26 length 4501 ft width 75 ft
---- / hdg 256

(D) RW 32 length 5308 ft width 100 ft
---- / hdg 319

Location; KIPL
Day. 08 / Time. 12.17 Zulu
* Altimeter: 29.99
* Temperature: 12° c. 53.6°f.
* Wind from: 180° Speed 05 kn.
Dewpoint: 12° c.
Visibility: 2 m.
Clouds: Clear (automated report).
Conditions: Mist.

KIPL 081217Z AUTO 18005KT 2 1/2SM BR CLR 12/12 A2999 RMK AO2 T01220117


Wind From 180°
Speed 05 kn.

 
 
jpsmedia worldairports.se 2019   terms of use